createdAt,value
2018-09-24T00:03:27.118Z,4.33
2018-09-24T00:07:22.739Z,4.77
2018-09-24T00:11:18.308Z,4.87
2018-09-24T00:15:13.940Z,5.03
2018-09-24T00:19:09.988Z,4.47
2018-09-24T00:23:05.467Z,4.13
2018-09-24T00:27:01.005Z,3.93
2018-09-24T00:30:56.563Z,3.50
2018-09-24T00:34:52.109Z,3.33
2018-09-24T00:38:47.874Z,3.37
2018-09-24T00:42:43.712Z,3.47
2018-09-24T00:46:39.327Z,4.27
2018-09-24T00:50:35.049Z,4.03
2018-09-24T00:54:31.562Z,3.80
2018-09-24T00:58:27.636Z,3.97
2018-09-24T01:02:23.381Z,4.40
2018-09-24T01:06:19.035Z,5.23
2018-09-24T01:10:14.741Z,5.20
2018-09-24T01:14:10.648Z,5.47
2018-09-24T01:18:06.150Z,5.30
2018-09-24T01:22:01.597Z,4.87
2018-09-24T01:25:57.354Z,5.00
2018-09-24T01:29:54.085Z,4.97
2018-09-24T01:33:49.813Z,5.50
2018-09-24T01:37:45.373Z,5.17
2018-09-24T01:41:40.994Z,5.53
2018-09-24T01:45:36.510Z,5.40
2018-09-24T01:49:32.264Z,5.67
2018-09-24T01:53:27.860Z,5.33
2018-09-24T01:57:23.476Z,5.80
2018-09-24T02:01:19.248Z,5.20
2018-09-24T02:05:16.164Z,6.53
2018-09-24T02:09:11.716Z,5.73
2018-09-24T02:13:07.433Z,5.90
2018-09-24T02:17:03.068Z,5.70
2018-09-24T02:20:59.713Z,5.77
2018-09-24T02:24:56.784Z,5.87
2018-09-24T02:28:52.309Z,5.83
2018-09-24T02:32:47.991Z,6.17
2018-09-24T02:36:44.102Z,5.67
2018-09-24T02:40:39.951Z,6.70
2018-09-24T02:44:35.780Z,6.37
2018-09-24T02:48:31.401Z,5.73
2018-09-24T02:52:26.936Z,5.63
2018-09-24T02:56:22.965Z,5.87
2018-09-24T03:00:22.398Z,5.90
2018-09-24T03:04:17.984Z,5.47
2018-09-24T03:08:14.551Z,5.43
2018-09-24T03:12:10.319Z,5.73
2018-09-24T03:16:05.991Z,5.37
2018-09-24T03:20:01.692Z,4.80
2018-09-24T03:23:57.720Z,5.50
2018-09-24T03:27:53.613Z,5.27
2018-09-24T03:31:49.085Z,4.60
2018-09-24T03:35:44.686Z,4.50
2018-09-24T03:39:40.236Z,5.33
2018-09-24T03:43:35.792Z,5.90
2018-09-24T03:47:31.284Z,5.60
2018-09-24T03:51:28.815Z,4.50
2018-09-24T03:55:24.568Z,6.60
2018-09-24T03:59:25.686Z,5.00
2018-09-24T04:03:21.854Z,6.47
2018-09-24T04:07:22.445Z,5.47
2018-09-24T04:11:23.525Z,6.62
2018-09-24T04:15:24.199Z,4.33
2018-09-24T04:19:24.934Z,4.67
2018-09-24T04:23:25.781Z,5.03
2018-09-24T04:27:26.499Z,6.60
2018-09-24T04:31:27.210Z,5.07
2018-09-24T04:35:27.880Z,4.97
2018-09-24T04:39:28.584Z,4.97
2018-09-24T04:43:29.220Z,4.17
2018-09-24T04:47:29.972Z,6.10
2018-09-24T04:51:30.628Z,4.80
2018-09-24T04:55:31.148Z,4.10
2018-09-24T04:59:31.923Z,3.77
2018-09-24T05:03:32.506Z,5.65
2018-09-24T05:07:33.341Z,4.50
2018-09-24T05:11:33.916Z,5.17
2018-09-24T05:15:34.609Z,4.63
2018-09-24T05:19:35.392Z,4.30
2018-09-24T05:23:36.005Z,4.40
2018-09-24T05:27:36.558Z,5.30
2018-09-24T05:31:37.358Z,3.60
2018-09-24T05:35:38.053Z,6.73
2018-09-24T05:39:38.633Z,5.53
2018-09-24T05:43:39.604Z,5.73
2018-09-24T05:47:40.369Z,5.90
2018-09-24T05:51:41.217Z,6.37
2018-09-24T05:55:42.151Z,7.10
2018-09-24T05:59:43.050Z,5.40
2018-09-24T06:03:43.619Z,4.42
2018-09-24T06:07:44.239Z,7.03
2018-09-24T06:11:44.927Z,9.47
2018-09-24T06:15:45.632Z,8.40
2018-09-24T06:19:46.351Z,7.47
2018-09-24T06:23:47.196Z,6.73
2018-09-24T06:27:48.313Z,5.87
2018-09-24T06:31:48.893Z,6.73
2018-09-24T06:35:49.809Z,4.70
2018-09-24T06:39:50.587Z,5.07
2018-09-24T06:43:51.528Z,7.83
2018-09-24T06:47:52.019Z,6.70
2018-09-24T06:51:52.641Z,5.40
2018-09-24T06:55:53.373Z,5.07
2018-09-24T06:59:54.087Z,4.00
2018-09-24T07:03:54.905Z,3.63
2018-09-24T07:07:55.456Z,6.80
2018-09-24T07:11:56.044Z,3.90
2018-09-24T07:15:56.731Z,4.63
2018-09-24T07:19:57.521Z,3.40
2018-09-24T07:23:58.125Z,5.03
2018-09-24T07:27:58.645Z,5.33
2018-09-24T07:31:59.219Z,4.83
2018-09-24T07:35:59.962Z,4.33
2018-09-24T07:40:00.718Z,4.43
2018-09-24T07:44:01.697Z,5.20
2018-09-24T07:48:02.426Z,8.57
2018-09-24T07:52:03.282Z,4.53
2018-09-24T07:56:05.272Z,4.47
2018-09-24T08:00:05.876Z,4.03
2018-09-24T08:04:06.585Z,4.97
2018-09-24T08:08:07.172Z,4.00
2018-09-24T08:12:07.760Z,4.40
2018-09-24T08:16:08.777Z,5.30
2018-09-24T08:20:09.401Z,4.17
2018-09-24T08:24:10.410Z,3.90
2018-09-24T08:28:11.151Z,4.08
2018-09-24T08:32:11.662Z,3.50
2018-09-24T08:36:13.022Z,2.97
2018-09-24T08:40:13.483Z,3.20
2018-09-24T08:44:14.518Z,2.47
2018-09-24T08:48:15.198Z,2.10
2018-09-24T08:52:15.812Z,2.37
2018-09-24T08:56:16.389Z,2.10
2018-09-24T09:00:17.095Z,1.50
2018-09-24T09:04:17.736Z,2.98
2018-09-24T09:08:18.387Z,1.47
2018-09-24T09:12:19.129Z,1.73
2018-09-24T09:16:19.983Z,1.30
2018-09-24T09:20:20.749Z,1.90
2018-09-24T09:24:21.440Z,1.90
2018-09-24T09:28:21.985Z,1.30
2018-09-24T09:32:22.654Z,1.33
2018-09-24T09:36:23.798Z,1.35
2018-09-24T09:40:24.529Z,1.50
2018-09-24T09:44:25.359Z,1.10
2018-09-24T09:48:26.037Z,1.37
2018-09-24T09:52:26.651Z,1.40
2018-09-24T09:56:27.277Z,1.12
2018-09-24T10:00:28.168Z,1.60
2018-09-24T10:04:29.053Z,1.03
2018-09-24T10:08:29.799Z,2.03
2018-09-24T10:12:30.417Z,1.10
2018-09-24T10:16:31.206Z,0.93
2018-09-24T10:20:31.820Z,1.83
2018-09-24T10:24:32.680Z,1.43
2018-09-24T10:28:33.560Z,1.00
2018-09-24T10:32:34.258Z,1.00
2018-09-24T10:36:41.524Z,1.43
2018-09-24T10:40:42.273Z,1.20
2018-09-24T10:44:42.887Z,1.50
2018-09-24T10:48:43.601Z,1.30
2018-09-24T10:52:44.560Z,1.27
2018-09-24T10:56:45.244Z,0.97
2018-09-24T11:00:45.967Z,1.03
2018-09-24T11:08:52.558Z,1.30
2018-09-24T11:12:53.273Z,1.70
2018-09-24T11:16:54.137Z,1.40
2018-09-24T11:20:54.642Z,0.93
2018-09-24T11:24:55.446Z,1.03
2018-09-24T11:28:56.200Z,1.73
2018-09-24T11:32:56.824Z,1.03
2018-09-24T11:36:58.241Z,1.13
2018-09-24T11:40:58.866Z,1.00
2018-09-24T11:44:59.627Z,1.00
2018-09-24T11:49:00.562Z,1.30
2018-09-24T11:53:01.509Z,1.30
2018-09-24T11:57:02.286Z,0.53
2018-09-24T12:01:03.024Z,1.17
2018-09-24T12:05:03.856Z,1.67
2018-09-24T12:09:05.092Z,0.70
2018-09-24T12:13:05.863Z,1.47
2018-09-24T12:17:06.917Z,1.00
2018-09-24T12:21:07.644Z,1.60
2018-09-24T12:25:08.901Z,1.43
2018-09-24T12:29:09.549Z,1.70
2018-09-24T12:33:10.320Z,1.80
2018-09-24T12:37:11.029Z,1.33
2018-09-24T12:41:12.066Z,1.00
2018-09-24T12:45:12.857Z,1.43
2018-09-24T12:49:13.673Z,1.47
2018-09-24T12:53:14.444Z,1.10
2018-09-24T12:57:15.052Z,1.37
2018-09-24T13:01:16.130Z,0.80
2018-09-24T13:05:17.073Z,1.37
2018-09-24T13:09:19.446Z,1.10
2018-09-24T13:13:20.084Z,1.10
2018-09-24T13:17:20.877Z,0.97
2018-09-24T13:21:21.556Z,1.00
2018-09-24T13:25:22.289Z,1.00
2018-09-24T13:29:23.267Z,0.90
2018-09-24T13:33:24.048Z,1.20
2018-09-24T13:37:24.955Z,1.20
2018-09-24T13:41:25.755Z,1.40
2018-09-24T13:45:26.636Z,1.35
2018-09-24T13:49:27.210Z,1.50
2018-09-24T13:53:28.162Z,1.47
2018-09-24T13:57:29.105Z,1.60
2018-09-24T14:01:29.852Z,1.30
2018-09-24T14:05:30.542Z,2.30
2018-09-24T14:09:31.504Z,1.80
2018-09-24T14:13:32.737Z,1.25
2018-09-24T14:17:33.422Z,1.13
2018-09-24T14:21:34.194Z,1.20
2018-09-24T14:25:35.015Z,1.20
2018-09-24T14:29:35.720Z,1.10
2018-09-24T14:33:36.467Z,1.10
2018-09-24T14:37:37.733Z,0.98
2018-09-24T14:41:38.560Z,1.00
2018-09-24T14:45:39.600Z,1.20
2018-09-24T14:49:47.541Z,1.00
2018-09-24T14:53:48.425Z,1.17
2018-09-24T14:57:49.440Z,0.80
2018-09-24T15:01:49.940Z,1.17
2018-09-24T15:05:50.825Z,1.00
2018-09-24T15:09:51.781Z,1.60
2018-09-24T15:13:52.399Z,1.00
2018-09-24T15:17:53.240Z,1.30
2018-09-24T15:21:53.932Z,0.87
2018-09-24T15:25:54.662Z,1.73
2018-09-24T15:29:55.737Z,1.40
2018-09-24T15:33:56.819Z,1.63
2018-09-24T15:37:57.639Z,1.17
2018-09-24T15:41:58.428Z,1.20
2018-09-24T15:45:59.262Z,1.13
2018-09-24T15:50:00.035Z,0.80
2018-09-24T15:54:00.882Z,1.20
2018-09-24T15:58:01.601Z,1.37
2018-09-24T16:02:02.333Z,1.70
2018-09-24T16:06:03.434Z,1.30
2018-09-24T16:10:04.423Z,1.00
2018-09-24T16:14:06.074Z,1.10
2018-09-24T16:18:06.665Z,1.10
2018-09-24T16:22:07.395Z,1.50
2018-09-24T16:26:08.121Z,1.10
2018-09-24T16:30:15.493Z,1.03
2018-09-24T16:34:16.479Z,1.30
2018-09-24T16:42:39.104Z,0.70
2018-09-24T16:46:40.341Z,1.22
2018-09-24T16:50:41.140Z,0.70
2018-09-24T16:54:42.039Z,0.97
2018-09-24T16:58:42.769Z,0.95
2018-09-24T17:02:44.712Z,1.00
2018-09-24T17:06:45.261Z,0.90
2018-09-24T17:10:46.650Z,1.30
2018-09-24T17:14:47.947Z,1.00
2018-09-24T17:18:49.913Z,1.17
2018-09-24T17:22:50.745Z,1.03
2018-09-24T17:26:52.044Z,1.20
2018-09-24T17:30:52.660Z,1.10
2018-09-24T17:34:54.038Z,1.60
2018-09-24T17:38:55.520Z,1.07
2018-09-24T17:42:56.172Z,1.07
2018-09-24T17:46:56.768Z,2.20
2018-09-24T17:50:57.829Z,1.23
2018-09-24T17:54:58.508Z,1.00
2018-09-24T17:58:59.501Z,1.40
2018-09-24T18:03:00.361Z,1.13
2018-09-24T18:07:01.109Z,1.50
2018-09-24T18:11:01.857Z,1.17
2018-09-24T18:15:02.669Z,1.20
2018-09-24T18:19:03.387Z,1.40
2018-09-24T18:23:04.078Z,1.73
2018-09-24T18:27:04.863Z,1.70
2018-09-24T18:31:07.104Z,1.73
2018-09-24T18:35:07.894Z,1.40
2018-09-24T18:39:08.780Z,1.00
2018-09-24T18:43:09.625Z,1.50
2018-09-24T18:47:11.889Z,1.57
2018-09-24T18:51:12.616Z,1.30
2018-09-24T18:55:13.209Z,1.25
2018-09-24T18:59:13.982Z,1.23
2018-09-24T19:03:14.721Z,1.17
2018-09-24T19:07:15.732Z,1.13
2018-09-24T19:11:16.541Z,1.13
2018-09-24T19:15:17.437Z,1.27
2018-09-24T19:19:18.194Z,1.60
2018-09-24T19:23:18.977Z,1.03
2018-09-24T19:27:19.923Z,1.40
2018-09-24T19:31:20.619Z,1.30
2018-09-24T19:35:21.357Z,1.50
2018-09-24T19:39:22.102Z,2.10
2018-09-24T19:43:23.898Z,2.00
2018-09-24T19:47:25.769Z,1.47
2018-09-24T19:51:27.594Z,1.50
2018-09-24T19:55:29.197Z,1.37
2018-09-24T19:59:30.848Z,1.30
2018-09-24T20:03:32.452Z,1.73
2018-09-24T20:07:34.164Z,1.67
2018-09-24T20:11:37.684Z,1.57
2018-09-24T20:15:40.040Z,1.30
2018-09-24T20:19:41.878Z,1.90
2018-09-24T20:23:43.615Z,1.00
2018-09-24T20:27:45.231Z,1.40
2018-09-24T20:31:47.176Z,1.50
2018-09-24T20:35:48.807Z,1.70
2018-09-24T20:39:50.827Z,1.90
2018-09-24T20:43:52.613Z,1.20
2018-09-24T20:47:54.218Z,1.57
2018-09-24T20:51:56.016Z,1.40
2018-09-24T20:55:59.327Z,1.70
2018-09-24T21:00:00.902Z,1.80
2018-09-24T21:04:02.626Z,1.40
2018-09-24T21:08:04.321Z,1.47
2018-09-24T21:12:06.061Z,1.63
2018-09-24T21:16:07.652Z,1.40
2018-09-24T21:20:09.275Z,1.20
2018-09-24T21:24:11.010Z,1.60
2018-09-24T21:28:13.072Z,1.53
2018-09-24T21:32:14.788Z,1.90
2018-09-24T21:36:17.438Z,1.47
2018-09-24T21:40:19.533Z,1.53
2018-09-24T21:44:21.297Z,1.90
2018-09-24T21:48:22.816Z,1.97
2018-09-24T21:52:24.243Z,2.23
2018-09-24T21:56:25.949Z,2.40
2018-09-24T22:00:27.779Z,2.30
2018-09-24T22:04:29.496Z,2.87
2018-09-24T22:08:31.129Z,2.93
2018-09-24T22:12:33.142Z,2.40
2018-09-24T22:16:51.301Z,2.57
2018-09-24T22:20:53.189Z,1.87
2018-09-24T22:24:55.000Z,1.90
2018-09-24T22:28:56.656Z,2.12
2018-09-24T22:32:58.421Z,1.93
2018-09-24T22:37:00.117Z,1.93
2018-09-24T22:41:01.893Z,1.80
2018-09-24T22:45:03.651Z,2.03
2018-09-24T22:49:05.357Z,1.80
2018-09-24T22:53:07.249Z,2.20
2018-09-24T22:57:08.838Z,1.73
2018-09-24T23:01:10.374Z,2.20
2018-09-24T23:05:12.143Z,2.17
2018-09-24T23:09:14.755Z,1.80
2018-09-24T23:13:16.827Z,2.07
2018-09-24T23:17:18.557Z,2.17
2018-09-24T23:21:20.069Z,1.62
2018-09-24T23:25:21.717Z,1.97
2018-09-24T23:29:23.288Z,1.90
2018-09-24T23:33:24.857Z,2.30
2018-09-24T23:37:29.904Z,2.00
2018-09-24T23:41:31.456Z,2.07
2018-09-24T23:45:33.622Z,2.30
2018-09-24T23:49:35.325Z,2.10
2018-09-24T23:53:37.316Z,2.03
2018-09-24T23:57:39.133Z,1.83
